createdAt,value
2018-09-16T00:01:16.787Z,136.97
2018-09-16T00:03:56.103Z,137.33
2018-09-16T00:06:34.068Z,145.20
2018-09-16T00:09:16.200Z,144.17
2018-09-16T00:11:56.863Z,140.20
2018-09-16T00:14:35.646Z,106.20
2018-09-16T00:17:14.464Z,157.60
2018-09-16T00:19:53.501Z,157.53
2018-09-16T00:22:35.165Z,139.57
2018-09-16T00:25:14.144Z,139.83
2018-09-16T00:27:53.149Z,130.43
2018-09-16T00:30:31.948Z,126.90
2018-09-16T00:33:10.446Z,109.10
2018-09-16T00:35:48.980Z,106.13
2018-09-16T00:38:28.327Z,101.57
2018-09-16T00:41:07.822Z,86.77
2018-09-16T00:43:46.786Z,85.73
2018-09-16T00:46:28.384Z,71.60
2018-09-16T00:49:07.551Z,69.93
2018-09-16T00:51:47.385Z,73.90
2018-09-16T00:54:26.505Z,66.73
2018-09-16T00:57:07.762Z,60.77
2018-09-16T00:59:46.805Z,59.77
2018-09-16T01:02:26.650Z,63.57
2018-09-16T01:05:04.727Z,59.10
2018-09-16T01:07:42.984Z,61.03
2018-09-16T01:10:24.047Z,56.03
2018-09-16T01:13:03.462Z,54.73
2018-09-16T01:15:43.867Z,49.70
2018-09-16T01:18:24.201Z,50.17
2018-09-16T01:21:03.244Z,50.30
2018-09-16T01:23:42.349Z,44.80
2018-09-16T01:26:21.828Z,42.40
2018-09-16T01:29:00.061Z,41.37
2018-09-16T01:31:41.361Z,37.70
2018-09-16T01:34:19.666Z,35.33
2018-09-16T01:36:58.884Z,35.57
2018-09-16T01:39:37.681Z,34.67
2018-09-16T01:42:16.443Z,36.83
2018-09-16T01:44:55.484Z,32.90
2018-09-16T01:47:34.700Z,35.80
2018-09-16T01:50:14.091Z,37.70
2018-09-16T01:52:53.928Z,36.03
2018-09-16T01:55:32.508Z,34.83
2018-09-16T01:58:12.481Z,35.23
2018-09-16T02:00:52.204Z,37.40
2018-09-16T02:03:31.282Z,35.67
2018-09-16T02:06:11.579Z,37.53
2018-09-16T02:08:51.204Z,36.87
2018-09-16T02:11:30.665Z,37.93
2018-09-16T02:14:09.426Z,40.00
2018-09-16T02:16:48.297Z,38.80
2018-09-16T02:19:26.820Z,41.33
2018-09-16T02:22:06.305Z,39.63
2018-09-16T02:24:45.227Z,39.10
2018-09-16T02:27:23.523Z,37.23
2018-09-16T02:30:02.153Z,38.60
2018-09-16T02:32:42.803Z,39.13
2018-09-16T02:35:22.067Z,39.97
2018-09-16T02:38:01.063Z,40.60
2018-09-16T02:40:40.845Z,39.57
2018-09-16T02:43:19.612Z,44.93
2018-09-16T02:45:58.608Z,40.60
2018-09-16T02:48:39.242Z,38.67
2018-09-16T02:51:18.564Z,45.47
2018-09-16T02:53:57.285Z,43.87
2018-09-16T02:56:36.628Z,46.57
2018-09-16T02:59:17.109Z,41.20
2018-09-16T03:01:56.485Z,39.07
2018-09-16T03:04:36.738Z,42.40
2018-09-16T03:07:16.344Z,40.40
2018-09-16T03:09:55.068Z,52.13
2018-09-16T03:12:36.189Z,40.87
2018-09-16T03:15:15.482Z,39.83
2018-09-16T03:17:54.105Z,39.90
2018-09-16T03:20:32.744Z,46.23
2018-09-16T03:23:12.502Z,41.30
2018-09-16T03:25:50.223Z,43.30
2018-09-16T03:28:30.104Z,52.73
2018-09-16T03:31:09.079Z,44.17
2018-09-16T03:33:48.080Z,42.30
2018-09-16T03:36:27.343Z,40.77
2018-09-16T03:39:07.042Z,65.13
2018-09-16T03:41:45.763Z,50.80
2018-09-16T03:44:24.913Z,53.00
2018-09-16T03:47:04.246Z,47.97
2018-09-16T03:49:43.784Z,36.27
2018-09-16T03:52:22.944Z,45.00
2018-09-16T03:55:01.068Z,39.13
2018-09-16T03:57:39.771Z,38.70
2018-09-16T04:00:19.306Z,37.07
2018-09-16T04:02:58.807Z,44.70
2018-09-16T04:05:39.125Z,38.17
2018-09-16T04:08:17.485Z,36.17
2018-09-16T04:10:56.002Z,42.50
2018-09-16T04:13:35.150Z,31.87
2018-09-16T04:16:14.425Z,43.33
2018-09-16T04:18:53.207Z,36.63
2018-09-16T04:21:33.558Z,42.43
2018-09-16T04:24:12.362Z,34.47
2018-09-16T04:26:50.781Z,35.60
2018-09-16T04:29:29.959Z,38.50
2018-09-16T04:32:10.905Z,36.43
2018-09-16T04:34:49.567Z,38.83
2018-09-16T04:37:29.685Z,53.77
2018-09-16T04:40:09.943Z,64.57
2018-09-16T04:42:48.623Z,45.77
2018-09-16T04:45:27.884Z,46.97
2018-09-16T04:48:07.184Z,34.53
2018-09-16T04:50:46.307Z,37.53
2018-09-16T04:53:27.141Z,48.80
2018-09-16T04:56:05.720Z,47.47
2018-09-16T04:58:45.287Z,31.73
2018-09-16T05:01:24.365Z,43.03
2018-09-16T05:04:03.945Z,31.70
2018-09-16T05:06:42.866Z,36.43
2018-09-16T05:09:21.924Z,41.63
2018-09-16T05:12:01.459Z,42.70
2018-09-16T05:14:40.865Z,42.27
2018-09-16T05:17:19.642Z,56.83
2018-09-16T05:19:58.084Z,48.80
2018-09-16T05:22:38.063Z,59.73
2018-09-16T05:25:18.259Z,61.57
2018-09-16T05:27:58.341Z,51.33
2018-09-16T05:30:37.105Z,47.53
2018-09-16T05:33:16.625Z,59.40
2018-09-16T05:35:55.521Z,52.27
2018-09-16T05:38:36.301Z,51.00
2018-09-16T05:41:16.939Z,45.90
2018-09-16T05:43:57.464Z,46.07
2018-09-16T05:46:40.522Z,45.67
2018-09-16T05:49:19.785Z,42.23
2018-09-16T05:52:01.028Z,48.53
2018-09-16T05:54:39.681Z,47.13
2018-09-16T05:57:18.712Z,50.43
2018-09-16T05:59:59.003Z,37.07
2018-09-16T06:02:39.984Z,37.73
2018-09-16T06:05:19.223Z,38.53
2018-09-16T06:07:58.277Z,39.60
2018-09-16T06:10:37.487Z,39.53
2018-09-16T06:13:18.781Z,37.73
2018-09-16T06:15:58.184Z,40.37
2018-09-16T06:18:37.621Z,44.03
2018-09-16T06:21:19.023Z,50.73
2018-09-16T06:23:58.302Z,54.27
2018-09-16T06:26:38.120Z,59.57
2018-09-16T06:29:17.270Z,75.07
2018-09-16T06:31:57.103Z,123.13
2018-09-16T06:34:35.427Z,77.30
2018-09-16T06:37:13.012Z,111.60
2018-09-16T06:39:53.781Z,116.77
2018-09-16T06:42:32.002Z,153.03
2018-09-16T06:45:10.813Z,179.40
2018-09-16T06:47:48.228Z,226.40
2018-09-16T06:50:27.583Z,171.17
2018-09-16T06:53:06.717Z,205.80
2018-09-16T06:55:46.264Z,127.37
2018-09-16T06:58:25.266Z,72.87
2018-09-16T07:01:04.909Z,54.10
2018-09-16T07:03:44.460Z,39.67
2018-09-16T07:06:24.440Z,49.57
2018-09-16T07:09:05.543Z,40.00
2018-09-16T07:11:43.267Z,38.73
2018-09-16T07:14:21.184Z,36.83
2018-09-16T07:17:03.618Z,40.40
2018-09-16T07:19:41.326Z,62.70
2018-09-16T07:22:21.228Z,74.70
2018-09-16T07:25:02.146Z,80.40
2018-09-16T07:27:44.269Z,51.50
2018-09-16T07:30:23.382Z,33.73
2018-09-16T07:33:03.560Z,37.77
2018-09-16T07:35:42.120Z,43.57
2018-09-16T07:38:22.043Z,103.13
2018-09-16T07:41:02.387Z,110.43
2018-09-16T07:43:41.543Z,135.50
2018-09-16T07:46:36.113Z,204.83
2018-09-16T07:49:15.581Z,143.13
2018-09-16T07:51:55.372Z,140.40
2018-09-16T07:54:35.225Z,33.70
2018-09-16T07:57:13.520Z,66.03
2018-09-16T07:59:53.323Z,156.30
2018-09-16T08:02:32.783Z,75.93
2018-09-16T08:05:11.328Z,33.57
2018-09-16T08:07:49.883Z,26.53
2018-09-16T08:10:29.987Z,29.13
2018-09-16T08:13:08.213Z,93.60
2018-09-16T08:15:45.951Z,204.53
2018-09-16T08:18:23.090Z,71.20
2018-09-16T08:20:59.890Z,37.57
2018-09-16T08:23:36.903Z,44.03
2018-09-16T08:26:19.670Z,318.77
2018-09-16T08:28:57.364Z,235.47
2018-09-16T08:31:33.839Z,183.83
2018-09-16T08:34:10.268Z,66.33
2018-09-16T08:36:52.185Z,36.03
2018-09-16T08:39:30.621Z,48.57
2018-09-16T08:42:09.585Z,181.37
2018-09-16T08:44:48.527Z,83.83
2018-09-16T08:47:28.763Z,141.60
2018-09-16T08:50:06.245Z,55.47
2018-09-16T08:52:49.863Z,28.87
2018-09-16T08:55:30.026Z,108.13
2018-09-16T08:58:09.005Z,25.87
2018-09-16T09:00:48.050Z,26.60
2018-09-16T09:03:27.183Z,29.50
2018-09-16T09:06:09.345Z,28.13
2018-09-16T09:08:47.452Z,21.13
2018-09-16T09:11:25.105Z,21.00
2018-09-16T09:14:01.583Z,25.63
2018-09-16T09:16:39.153Z,22.20
2018-09-16T09:19:21.133Z,37.97
2018-09-16T09:21:58.845Z,36.83
2018-09-16T09:24:38.122Z,23.83
2018-09-16T09:27:19.608Z,26.43
2018-09-16T09:29:57.865Z,58.20
2018-09-16T09:32:38.607Z,37.83
2018-09-16T09:35:18.691Z,30.77
2018-09-16T09:37:58.671Z,20.33
2018-09-16T09:40:37.747Z,17.77
2018-09-16T09:43:18.843Z,18.97
2018-09-16T09:45:57.603Z,18.20
2018-09-16T09:48:37.642Z,17.47
2018-09-16T09:51:16.361Z,16.73
2018-09-16T09:53:54.691Z,16.77
2018-09-16T09:56:31.732Z,16.77
2018-09-16T09:59:10.071Z,17.37
2018-09-16T10:01:50.467Z,19.30
2018-09-16T10:04:27.282Z,15.90
2018-09-16T10:07:05.666Z,20.70
2018-09-16T10:09:45.047Z,22.13
2018-09-16T10:12:22.223Z,15.80
2018-09-16T10:15:00.201Z,16.53
2018-09-16T10:17:38.745Z,16.00
2018-09-16T10:20:18.143Z,17.77
2018-09-16T10:22:57.104Z,22.03
2018-09-16T10:25:34.603Z,26.17
2018-09-16T10:28:11.144Z,31.10
2018-09-16T10:30:50.726Z,31.73
2018-09-16T10:33:28.489Z,29.57
2018-09-16T10:36:10.988Z,27.73
2018-09-16T10:38:47.604Z,19.43
2018-09-16T10:41:24.525Z,19.30
2018-09-16T10:44:03.687Z,22.03
2018-09-16T10:46:40.312Z,16.13
2018-09-16T10:49:20.543Z,21.93
2018-09-16T10:52:01.624Z,19.83
2018-09-16T10:54:40.667Z,19.00
2018-09-16T10:57:19.584Z,18.10
2018-09-16T10:59:59.827Z,19.00
2018-09-16T11:02:37.123Z,17.10
2018-09-16T11:05:16.962Z,18.30
2018-09-16T11:07:58.992Z,18.17
2018-09-16T11:10:38.722Z,19.17
2018-09-16T11:13:21.472Z,19.00
2018-09-16T11:16:01.167Z,19.30
2018-09-16T11:18:39.242Z,20.40
2018-09-16T11:21:19.725Z,19.15
2018-09-16T11:24:03.981Z,19.05
2018-09-16T11:26:45.463Z,20.83
2018-09-16T11:29:26.609Z,19.43
2018-09-16T11:32:13.859Z,18.60
2018-09-16T11:34:53.903Z,21.47
2018-09-16T11:37:36.204Z,21.20
2018-09-16T11:40:18.082Z,18.80
2018-09-16T11:43:00.124Z,19.32
2018-09-16T11:45:42.705Z,17.92
2018-09-16T11:48:25.282Z,17.73
2018-09-16T11:51:11.882Z,21.75
2018-09-16T11:53:49.161Z,20.40
2018-09-16T11:56:31.548Z,19.37
2018-09-16T11:59:13.187Z,19.95
2018-09-16T12:01:54.159Z,20.55
2018-09-16T12:04:38.603Z,22.10
2018-09-16T12:07:16.205Z,20.68
2018-09-16T12:09:54.304Z,17.20
2018-09-16T12:12:32.540Z,24.80
2018-09-16T12:15:13.983Z,24.27
2018-09-16T12:17:55.608Z,24.75
2018-09-16T12:20:33.427Z,22.50
2018-09-16T12:23:27.785Z,26.05
2018-09-16T12:26:07.530Z,25.92
2018-09-16T12:28:47.025Z,29.18
2018-09-16T12:31:25.247Z,32.48
2018-09-16T12:34:04.164Z,32.93
2018-09-16T12:36:43.086Z,37.70
2018-09-16T12:39:22.564Z,36.75
2018-09-16T12:42:03.440Z,39.63
2018-09-16T12:44:44.061Z,38.02
2018-09-16T12:47:23.602Z,38.58
2018-09-16T12:50:03.424Z,39.35
2018-09-16T12:52:58.324Z,40.17
2018-09-16T12:55:37.962Z,39.75
2018-09-16T12:58:17.640Z,39.60
2018-09-16T13:00:57.763Z,42.40
2018-09-16T13:03:41.145Z,41.63
2018-09-16T13:06:21.302Z,42.53
2018-09-16T13:08:58.824Z,45.70
2018-09-16T13:11:35.463Z,41.45
2018-09-16T13:14:15.607Z,40.45
2018-09-16T13:16:54.641Z,43.15
2018-09-16T13:19:34.546Z,45.05
2018-09-16T13:22:14.582Z,41.35
2018-09-16T13:24:53.744Z,43.20
2018-09-16T13:27:30.947Z,41.98
2018-09-16T13:30:10.162Z,45.00
2018-09-16T13:32:49.726Z,46.50
2018-09-16T13:35:28.143Z,49.05
2018-09-16T13:38:08.253Z,46.48
2018-09-16T13:40:46.765Z,48.90
2018-09-16T13:43:26.889Z,49.38
2018-09-16T13:46:07.567Z,52.25
2018-09-16T13:48:47.125Z,51.37
2018-09-16T13:51:40.250Z,50.08
2018-09-16T13:54:18.289Z,49.53
2018-09-16T13:56:57.601Z,50.75
2018-09-16T13:59:37.204Z,49.83
2018-09-16T14:02:17.266Z,45.10
2018-09-16T14:04:58.100Z,47.15
2018-09-16T14:07:37.743Z,50.78
2018-09-16T14:10:19.041Z,47.25
2018-09-16T14:12:59.393Z,50.45
2018-09-16T14:15:40.065Z,47.48
2018-09-16T14:18:19.802Z,49.75
2018-09-16T14:20:58.944Z,46.08
2018-09-16T14:23:39.610Z,35.33
2018-09-16T14:26:20.562Z,46.70
2018-09-16T14:29:01.805Z,47.65
2018-09-16T14:31:39.728Z,42.83
2018-09-16T14:34:19.644Z,33.02
2018-09-16T14:36:58.495Z,38.40
2018-09-16T14:39:37.860Z,32.58
2018-09-16T14:42:16.085Z,39.88
2018-09-16T14:44:54.805Z,40.05
2018-09-16T14:47:36.662Z,40.43
2018-09-16T14:50:14.905Z,44.80
2018-09-16T14:52:55.122Z,38.60
2018-09-16T14:55:33.305Z,43.30
2018-09-16T14:58:14.048Z,44.98
2018-09-16T15:00:56.103Z,33.50
2018-09-16T15:03:33.324Z,22.60
2018-09-16T15:06:10.125Z,35.00
2018-09-16T15:08:48.232Z,19.67
2018-09-16T15:11:27.224Z,29.05
2018-09-16T15:14:04.158Z,28.95
2018-09-16T15:16:41.146Z,18.20
2018-09-16T15:19:21.082Z,28.90
2018-09-16T15:22:00.182Z,18.48
2018-09-16T15:24:38.223Z,22.58
2018-09-16T15:27:19.202Z,20.60
2018-09-16T15:29:58.179Z,26.60
2018-09-16T15:32:39.621Z,17.50
2018-09-16T15:35:21.082Z,21.50
2018-09-16T15:38:05.219Z,23.42
2018-09-16T15:40:44.682Z,22.17
2018-09-16T15:43:23.025Z,24.95
2018-09-16T15:46:04.801Z,25.87
2018-09-16T15:48:46.744Z,20.62
2018-09-16T15:51:26.762Z,22.03
2018-09-16T15:54:04.742Z,20.48
2018-09-16T15:56:46.997Z,21.27
2018-09-16T15:59:28.101Z,18.15
2018-09-16T16:02:14.328Z,17.80
2018-09-16T16:04:52.358Z,16.37
2018-09-16T16:07:31.563Z,19.37
2018-09-16T16:10:09.164Z,16.02
2018-09-16T16:12:48.786Z,15.43
2018-09-16T16:15:29.719Z,15.77
2018-09-16T16:18:08.066Z,20.05
2018-09-16T16:20:48.943Z,18.70
2018-09-16T16:23:28.423Z,16.07
2018-09-16T16:26:05.406Z,17.70
2018-09-16T16:28:44.826Z,18.33
2018-09-16T16:31:23.250Z,16.57
2018-09-16T16:34:02.506Z,17.13
2018-09-16T16:36:40.123Z,16.77
2018-09-16T16:39:19.331Z,16.70
2018-09-16T16:42:01.105Z,16.87
2018-09-16T16:44:38.287Z,17.93
2018-09-16T16:47:14.629Z,16.87
2018-09-16T16:49:55.851Z,17.50
2018-09-16T16:52:37.501Z,17.47
2018-09-16T16:55:17.887Z,16.00
2018-09-16T16:57:59.583Z,15.40
2018-09-16T17:00:41.392Z,15.13
2018-09-16T17:03:20.950Z,15.60
2018-09-16T17:05:59.100Z,15.83
2018-09-16T17:08:40.583Z,15.87
2018-09-16T17:11:20.182Z,16.27
2018-09-16T17:14:00.665Z,17.87
2018-09-16T17:16:39.063Z,20.57
2018-09-16T17:19:18.223Z,32.13
2018-09-16T17:21:55.265Z,28.90
2018-09-16T17:24:32.600Z,36.57
2018-09-16T17:27:10.888Z,60.57
2018-09-16T17:29:50.127Z,94.23
2018-09-16T17:32:29.326Z,136.23
2018-09-16T17:35:07.006Z,139.73
2018-09-16T17:37:46.728Z,197.10
2018-09-16T17:40:26.505Z,285.73
2018-09-16T17:43:04.528Z,278.63
2018-09-16T17:45:44.702Z,257.63
2018-09-16T17:48:23.890Z,202.10
2018-09-16T17:51:02.047Z,155.60
2018-09-16T17:53:45.021Z,118.17
2018-09-16T17:56:23.123Z,94.13
2018-09-16T17:59:00.083Z,104.47
2018-09-16T18:01:38.829Z,75.73
2018-09-16T18:04:21.103Z,70.30
2018-09-16T18:07:01.359Z,67.27
2018-09-16T18:09:39.803Z,64.60
2018-09-16T18:12:18.542Z,57.83
2018-09-16T18:14:58.807Z,42.47
2018-09-16T18:17:38.361Z,31.97
2018-09-16T18:20:18.684Z,25.53
2018-09-16T18:22:58.466Z,20.63
2018-09-16T18:25:38.224Z,19.90
2018-09-16T18:28:19.219Z,35.80
2018-09-16T18:30:57.483Z,39.37
2018-09-16T18:33:37.365Z,23.73
2018-09-16T18:36:16.627Z,23.63
2018-09-16T18:38:54.286Z,22.50
2018-09-16T18:41:35.184Z,24.13
2018-09-16T18:44:16.562Z,24.90
2018-09-16T18:46:55.852Z,27.73
2018-09-16T18:49:32.987Z,27.53
2018-09-16T18:52:09.828Z,33.63
2018-09-16T18:54:49.071Z,56.30
2018-09-16T18:57:26.451Z,62.93
2018-09-16T19:00:04.221Z,87.50
2018-09-16T19:02:43.682Z,68.17
2018-09-16T19:05:27.371Z,64.27
2018-09-16T19:08:07.487Z,49.60
2018-09-16T19:10:46.127Z,48.73
2018-09-16T19:13:24.910Z,42.80
2018-09-16T19:16:05.241Z,40.60
2018-09-16T19:18:41.900Z,36.67
2018-09-16T19:21:20.647Z,33.47
2018-09-16T19:23:59.124Z,31.17
2018-09-16T19:26:41.664Z,26.37
2018-09-16T19:29:20.608Z,24.93
2018-09-16T19:31:59.186Z,31.00
2018-09-16T19:34:38.068Z,31.40
2018-09-16T19:37:19.620Z,81.27
2018-09-16T19:39:58.980Z,178.60
2018-09-16T19:42:39.204Z,264.67
2018-09-16T19:45:18.887Z,437.60
2018-09-16T19:47:58.305Z,449.87
2018-09-16T19:50:37.442Z,413.47
2018-09-16T19:53:16.332Z,430.03
2018-09-16T19:55:57.926Z,458.10
2018-09-16T19:58:38.361Z,400.43
2018-09-16T20:01:18.143Z,431.60
2018-09-16T20:03:57.984Z,408.30
2018-09-16T20:06:36.221Z,302.50
2018-09-16T20:09:18.923Z,248.90
2018-09-16T20:11:58.762Z,239.33
2018-09-16T20:14:37.663Z,234.03
2018-09-16T20:17:17.208Z,237.03
2018-09-16T20:19:54.468Z,218.40
2018-09-16T20:22:34.630Z,142.80
2018-09-16T20:25:14.267Z,112.33
2018-09-16T20:27:55.082Z,73.90
2018-09-16T20:30:36.084Z,53.90
2018-09-16T20:33:16.524Z,47.63
2018-09-16T20:35:56.325Z,36.90
2018-09-16T20:38:37.486Z,32.47
2018-09-16T20:41:16.185Z,27.63
2018-09-16T20:43:55.223Z,25.17
2018-09-16T20:46:33.503Z,25.57
2018-09-16T20:49:12.765Z,28.33
2018-09-16T20:51:52.629Z,28.13
2018-09-16T20:54:31.261Z,25.70
2018-09-16T20:57:12.526Z,24.30
2018-09-16T20:59:51.507Z,24.70
2018-09-16T21:02:30.721Z,26.20
2018-09-16T21:05:09.221Z,23.70
2018-09-16T21:07:49.285Z,25.70
2018-09-16T21:10:28.801Z,29.70
2018-09-16T21:13:07.102Z,36.57
2018-09-16T21:15:47.426Z,48.30
2018-09-16T21:18:26.691Z,48.33
2018-09-16T21:21:05.269Z,59.23
2018-09-16T21:23:44.810Z,72.40
2018-09-16T21:26:23.482Z,75.87
2018-09-16T21:29:02.684Z,67.53
2018-09-16T21:31:41.306Z,70.13
2018-09-16T21:34:19.400Z,71.20
2018-09-16T21:36:58.064Z,69.80
2018-09-16T21:39:37.429Z,65.47
2018-09-16T21:42:17.002Z,82.07
2018-09-16T21:44:53.425Z,83.67
2018-09-16T21:47:32.690Z,66.17
2018-09-16T21:50:11.624Z,61.23
2018-09-16T21:52:51.105Z,49.60
2018-09-16T21:55:30.706Z,43.93
2018-09-16T21:58:09.908Z,43.70
2018-09-16T22:00:51.484Z,36.53
2018-09-16T22:03:30.604Z,36.73
2018-09-16T22:06:09.884Z,32.47
2018-09-16T22:08:48.501Z,29.77
2018-09-16T22:11:26.724Z,30.70
2018-09-16T22:14:05.510Z,29.13
2018-09-16T22:16:45.210Z,31.87
2018-09-16T22:19:23.223Z,32.37
2018-09-16T22:22:02.228Z,36.70
2018-09-16T22:24:40.544Z,40.10
2018-09-16T22:27:19.281Z,48.70
2018-09-16T22:29:58.328Z,54.37
2018-09-16T22:32:38.342Z,53.90
2018-09-16T22:35:16.761Z,52.30
2018-09-16T22:37:55.807Z,42.13
2018-09-16T22:40:34.824Z,38.10
2018-09-16T22:43:14.145Z,37.27
2018-09-16T22:45:54.388Z,42.37
2018-09-16T22:48:33.743Z,41.43
2018-09-16T22:51:12.648Z,38.63
2018-09-16T22:53:51.303Z,38.90
2018-09-16T22:56:29.482Z,40.83
2018-09-16T22:59:08.959Z,35.37
2018-09-16T23:01:48.421Z,36.57
2018-09-16T23:04:27.986Z,35.17
2018-09-16T23:07:07.227Z,33.07
2018-09-16T23:09:46.304Z,31.30
2018-09-16T23:12:25.943Z,30.97
2018-09-16T23:15:04.202Z,30.70
2018-09-16T23:17:42.921Z,29.60
2018-09-16T23:20:21.246Z,28.30
2018-09-16T23:23:00.546Z,28.67
2018-09-16T23:25:39.065Z,28.87
2018-09-16T23:28:18.267Z,28.10
2018-09-16T23:30:56.725Z,27.20
2018-09-16T23:33:36.021Z,25.33
2018-09-16T23:36:15.746Z,25.63
2018-09-16T23:38:54.859Z,25.73
2018-09-16T23:41:33.703Z,24.33
2018-09-16T23:44:12.288Z,26.13
2018-09-16T23:46:51.319Z,25.20
2018-09-16T23:49:30.501Z,25.07
2018-09-16T23:52:10.566Z,25.57
2018-09-16T23:54:49.661Z,25.27
2018-09-16T23:57:28.686Z,26.50
